ADDS METAR Data INFO
IDs: Format: Raw Decoded Include TAF

Data at: 0107 UTC 24 Jun 2018

KOMN 232250Z 14008KT 7SM VCSH SCT055 30/24 A2998 RMK LAST
KOMN 232150Z 12010KT 7SM VCSH SCT060 30/24 A2997
KOMN 232050Z 12010KT 7SM VCSH SCT040 31/25 A2998
KOMN 231950Z 10008KT 7SM SCT049 32/25 A2997
KOMN 231850Z 31005KT 7SM SCT049 33/23 A2998
KOMN 231750Z 27010G15KT 7SM SCT030 33/22 A3000
KOMN 231647Z 27010G15KT 7SM SCT030 32/22 A3001
KOMN 231557Z 27010G15KT 7SM SCT030 32/23 A3001
KOMN 231450Z 27010KT 7SM SCT030 30/23 A3001
KOMN 231350Z 27010KT 7SM SCT020 29/25 A3001
KOMN 231250Z 25006KT 7SM SKC 28/25 A3001
KOMN 231150Z 22005KT 7SM SKC 25/25 A3000
KOMN 231050Z 00000KT 7SM SKC 24/24 A2998 RMK FIRST
KOMN 222250Z 13006KT 7SM SCT047 BKN080 27/24 A2991 RMK LAST
KOMN 222150Z 13006KT 7SM SKC 27/24 A2991
KOMN 222050Z 10004KT 7SM VCSH SCT047 26/24 A2993
KOMN 221950Z 25004KT 7SM VCSH SCT017 26/24 A2993 RMK TSE 45
KOMN 221930Z 23014G20KT 4SM TSRA SCT009 BKN070 25/24 A2993 RMK TSB 20
KOMN 221850Z 25007KT 7SM VCSH SCT025 33/23 A2993
KOMN 221750Z 29007KT 7SM SCT025 33/24 A2994
KOMN 221654Z 27007KT 7SM SCT025 32/24 A2996
KOMN 221547Z 27007KT 7SM SCT025 30/24 A2997
KOMN 221447Z 26007KT 7SM SCT015 28/25 A2998
KOMN 221350Z 26007KT 7SM SKC 27/25 A2998